createdAt,value
2023-01-07T00:01:40.270Z,4.53
2023-01-07T00:04:10.448Z,3.70
2023-01-07T00:06:39.993Z,4.60
2023-01-07T00:09:11.451Z,3.67
2023-01-07T00:11:40.317Z,3.30
2023-01-07T00:14:10.219Z,3.75
2023-01-07T00:16:38.757Z,3.45
2023-01-07T00:19:07.943Z,3.80
2023-01-07T00:21:35.457Z,3.63
2023-01-07T00:24:05.971Z,4.13
2023-01-07T00:26:36.878Z,3.70
2023-01-07T00:29:07.823Z,4.07
2023-01-07T00:31:40.514Z,4.05
2023-01-07T00:34:10.867Z,4.45
2023-01-07T00:36:46.294Z,3.90
2023-01-07T00:39:17.639Z,3.65
2023-01-07T00:42:07.603Z,3.78
2023-01-07T00:44:37.485Z,3.88
2023-01-07T00:47:09.894Z,3.63
2023-01-07T00:49:45.112Z,3.53
2023-01-07T00:52:13.022Z,3.30
2023-01-07T00:54:44.926Z,3.38
2023-01-07T00:57:17.030Z,3.25
2023-01-07T00:59:46.657Z,3.40
2023-01-07T01:02:15.048Z,3.30
2023-01-07T01:04:50.952Z,3.40
2023-01-07T01:07:20.797Z,3.50
2023-01-07T01:10:00.147Z,3.00
2023-01-07T01:12:31.198Z,3.42
2023-01-07T01:14:59.677Z,3.25
2023-01-07T01:17:33.565Z,3.28
2023-01-07T01:20:01.967Z,3.53
2023-01-07T01:22:33.316Z,3.28
2023-01-07T01:25:03.540Z,3.60
2023-01-07T01:27:33.004Z,3.42
2023-01-07T01:30:16.245Z,3.47
2023-01-07T01:32:51.332Z,3.75
2023-01-07T01:35:24.556Z,3.30
2023-01-07T01:38:12.500Z,3.50
2023-01-07T01:40:50.536Z,3.30
2023-01-07T01:43:33.731Z,3.25
2023-01-07T01:46:19.076Z,3.25
2023-01-07T01:48:59.556Z,3.33
2023-01-07T01:51:34.980Z,3.20
2023-01-07T01:54:08.572Z,3.40
2023-01-07T01:56:44.802Z,3.25
2023-01-07T01:59:19.879Z,3.10
2023-01-07T02:01:49.691Z,3.17
2023-01-07T02:04:24.079Z,3.42
2023-01-07T02:09:34.602Z,3.33
2023-01-07T02:12:21.293Z,2.95
2023-01-07T02:15:16.931Z,2.78
2023-01-07T02:18:08.781Z,3.30
2023-01-07T02:21:11.797Z,3.40
2023-01-07T02:23:49.683Z,3.80
2023-01-07T02:26:38.792Z,3.42
2023-01-07T02:29:39.793Z,3.10
2023-01-07T02:32:13.433Z,3.13
2023-01-07T02:35:12.959Z,3.42
2023-01-07T02:37:57.251Z,3.10
2023-01-07T02:40:39.040Z,2.85
2023-01-07T02:43:21.409Z,3.33
2023-01-07T02:46:00.611Z,3.33
2023-01-07T02:48:28.551Z,3.72
2023-01-07T02:50:56.045Z,3.45
2023-01-07T02:53:23.330Z,3.88
2023-01-07T02:56:17.500Z,3.55
2023-01-07T02:59:08.649Z,3.40
2023-01-07T03:02:01.300Z,3.53
2023-01-07T03:04:28.522Z,3.40
2023-01-07T03:07:33.902Z,3.22
2023-01-07T03:10:14.964Z,3.40
2023-01-07T03:13:06.548Z,3.88
2023-01-07T03:15:46.756Z,3.22
2023-01-07T03:18:25.147Z,3.60
2023-01-07T03:20:56.349Z,3.67
2023-01-07T03:23:27.757Z,3.63
2023-01-07T03:25:58.057Z,3.95
2023-01-07T03:28:30.109Z,3.47
2023-01-07T03:30:59.502Z,4.07
2023-01-07T03:33:42.813Z,3.97
2023-01-07T03:36:13.102Z,4.32
2023-01-07T03:38:43.225Z,4.07
2023-01-07T03:43:59.523Z,4.03
2023-01-07T03:46:27.364Z,4.13
2023-01-07T03:48:55.432Z,4.07
2023-01-07T03:51:23.809Z,3.67
2023-01-07T03:53:51.114Z,3.45
2023-01-07T03:56:18.523Z,3.53
2023-01-07T03:58:45.788Z,3.20
2023-01-07T04:01:13.049Z,3.30
2023-01-07T04:03:40.726Z,3.60
2023-01-07T04:06:08.063Z,3.83
2023-01-07T04:08:37.265Z,3.80
2023-01-07T04:11:04.951Z,3.00
2023-01-07T04:13:32.217Z,2.97
2023-01-07T04:15:59.660Z,3.33
2023-01-07T04:18:26.997Z,3.55
2023-01-07T04:20:55.420Z,3.33
2023-01-07T04:23:22.707Z,3.60
2023-01-07T04:25:51.209Z,3.63
2023-01-07T04:28:22.548Z,3.10
2023-01-07T04:30:50.736Z,3.50
2023-01-07T04:33:18.572Z,3.53
2023-01-07T04:35:46.878Z,3.40
2023-01-07T04:38:14.305Z,3.80
2023-01-07T04:40:41.708Z,3.28
2023-01-07T04:43:10.042Z,3.30
2023-01-07T04:45:37.351Z,3.80
2023-01-07T04:48:04.738Z,4.38
2023-01-07T04:50:33.016Z,3.10
2023-01-07T04:53:00.382Z,3.80
2023-01-07T04:55:28.685Z,4.50
2023-01-07T04:57:56.975Z,4.20
2023-01-07T05:00:24.268Z,4.28
2023-01-07T05:02:53.529Z,5.05
2023-01-07T05:05:21.544Z,4.80
2023-01-07T05:07:49.417Z,5.00
2023-01-07T05:10:18.880Z,4.90
2023-01-07T05:12:46.227Z,4.70
2023-01-07T05:15:15.208Z,5.20
2023-01-07T05:17:43.188Z,4.57
2023-01-07T05:20:10.925Z,5.38
2023-01-07T05:22:39.619Z,4.60
2023-01-07T05:25:07.371Z,5.75
2023-01-07T05:27:34.660Z,5.00
2023-01-07T05:30:04.198Z,5.68
2023-01-07T05:32:31.535Z,6.72
2023-01-07T05:34:59.008Z,6.18
2023-01-07T05:37:26.268Z,5.63
2023-01-07T05:39:53.592Z,5.32
2023-01-07T05:42:21.738Z,4.82
2023-01-07T05:44:49.963Z,5.13
2023-01-07T05:47:17.360Z,5.28
2023-01-07T05:49:44.581Z,4.95
2023-01-07T05:52:11.898Z,5.20
2023-01-07T05:54:39.123Z,4.60
2023-01-07T05:57:06.423Z,5.30
2023-01-07T05:59:34.922Z,4.88
2023-01-07T06:02:02.916Z,5.18
2023-01-07T06:04:30.309Z,4.88
2023-01-07T06:06:57.519Z,4.68
2023-01-07T06:09:24.687Z,5.10
2023-01-07T06:11:51.919Z,5.10
2023-01-07T06:14:19.156Z,5.00
2023-01-07T06:16:46.399Z,4.82
2023-01-07T06:19:13.729Z,4.85
2023-01-07T06:21:41.075Z,4.47
2023-01-07T06:24:08.445Z,4.72
2023-01-07T06:26:35.661Z,4.68
2023-01-07T06:29:02.997Z,4.72
2023-01-07T06:31:30.235Z,4.45
2023-01-07T06:33:57.528Z,5.00
2023-01-07T06:36:24.768Z,4.95
2023-01-07T06:38:52.016Z,5.20
2023-01-07T06:41:19.247Z,5.13
2023-01-07T06:43:46.500Z,4.97
2023-01-07T06:46:13.974Z,4.55
2023-01-07T06:48:41.239Z,4.38
2023-01-07T06:51:08.536Z,4.43
2023-01-07T06:53:35.885Z,5.07
2023-01-07T06:56:03.105Z,4.55
2023-01-07T06:58:30.406Z,4.50
2023-01-07T07:00:57.742Z,4.10
2023-01-07T07:03:25.062Z,4.45
2023-01-07T07:05:52.396Z,4.50
2023-01-07T07:08:19.622Z,4.78
2023-01-07T07:10:46.881Z,4.70
2023-01-07T07:13:14.124Z,4.97
2023-01-07T07:15:41.448Z,4.50
2023-01-07T07:18:08.736Z,5.55
2023-01-07T07:20:36.114Z,5.10
2023-01-07T07:23:03.953Z,5.15
2023-01-07T07:25:31.201Z,5.10
2023-01-07T07:27:58.520Z,6.07
2023-01-07T07:30:46.511Z,5.50
2023-01-07T07:33:15.157Z,5.75
2023-01-07T07:35:42.749Z,4.93
2023-01-07T07:38:09.992Z,5.25
2023-01-07T07:40:37.503Z,5.85
2023-01-07T07:43:10.694Z,5.53
2023-01-07T07:45:43.624Z,5.30
2023-01-07T07:48:13.888Z,6.03
2023-01-07T07:50:41.593Z,5.90
2023-01-07T07:53:10.558Z,5.70
2023-01-07T07:55:38.572Z,6.25
2023-01-07T07:58:06.647Z,6.10
2023-01-07T08:00:33.929Z,6.47
2023-01-07T08:03:01.571Z,5.90
2023-01-07T08:05:29.864Z,6.30
2023-01-07T08:07:58.336Z,6.20
2023-01-07T08:10:27.796Z,6.28
2023-01-07T08:12:55.028Z,6.30
2023-01-07T08:15:22.311Z,6.70
2023-01-07T08:17:59.336Z,6.43
2023-01-07T08:20:27.136Z,6.72
2023-01-07T08:22:54.450Z,6.55
2023-01-07T08:25:21.702Z,6.72
2023-01-07T08:27:48.935Z,6.97
2023-01-07T08:30:17.151Z,7.05
2023-01-07T08:32:44.434Z,7.38
2023-01-07T08:35:11.978Z,6.80
2023-01-07T08:37:39.228Z,6.72
2023-01-07T08:40:07.019Z,6.43
2023-01-07T08:42:34.304Z,6.55
2023-01-07T08:45:01.696Z,6.18
2023-01-07T08:47:29.143Z,6.45
2023-01-07T08:49:56.607Z,6.95
2023-01-07T08:52:24.463Z,5.93
2023-01-07T08:54:51.913Z,6.60
2023-01-07T08:57:19.466Z,6.25
2023-01-07T08:59:46.703Z,6.68
2023-01-07T09:02:16.685Z,6.38
2023-01-07T09:04:44.681Z,6.03
2023-01-07T09:07:12.296Z,6.05
2023-01-07T09:09:39.622Z,5.60
2023-01-07T09:12:10.022Z,4.90
2023-01-07T09:14:38.165Z,5.10
2023-01-07T09:17:05.528Z,5.80
2023-01-07T09:19:32.751Z,4.80
2023-01-07T09:22:00.007Z,5.05
2023-01-07T09:24:27.230Z,5.20
2023-01-07T09:26:54.525Z,5.07
2023-01-07T09:29:21.819Z,4.90
2023-01-07T09:31:49.229Z,5.57
2023-01-07T09:34:16.579Z,4.78
2023-01-07T09:36:43.785Z,5.60
2023-01-07T09:39:11.983Z,4.38
2023-01-07T09:42:04.077Z,5.43
2023-01-07T09:44:58.956Z,5.03
2023-01-07T09:47:29.708Z,5.00
2023-01-07T09:50:25.076Z,5.00
2023-01-07T09:52:55.425Z,4.20
2023-01-07T09:55:40.074Z,4.75
2023-01-07T09:58:27.586Z,4.30
2023-01-07T10:01:06.834Z,4.88
2023-01-07T10:04:04.940Z,4.18
2023-01-07T10:06:45.373Z,3.67
2023-01-07T10:09:39.209Z,3.72
2023-01-07T10:12:12.833Z,3.28
2023-01-07T10:14:48.157Z,3.65
2023-01-07T10:17:44.356Z,3.47
2023-01-07T10:20:30.251Z,3.50
2023-01-07T10:23:04.291Z,3.90
2023-01-07T10:25:38.459Z,3.58
2023-01-07T10:28:13.981Z,3.53
2023-01-07T10:30:44.830Z,3.35
2023-01-07T10:33:26.859Z,5.95
2023-01-07T10:38:45.681Z,3.88
2023-01-07T10:41:25.874Z,3.30
2023-01-07T10:44:39.358Z,3.30
2023-01-07T10:47:11.922Z,3.38
2023-01-07T10:50:31.583Z,3.45
2023-01-07T10:53:24.676Z,3.20
2023-01-07T10:56:13.403Z,3.63
2023-01-07T10:58:43.191Z,3.70
2023-01-07T11:01:20.766Z,3.85
2023-01-07T11:03:53.867Z,4.57
2023-01-07T11:06:49.213Z,4.65
2023-01-07T11:09:33.924Z,4.18
2023-01-07T11:12:41.645Z,4.00
2023-01-07T11:15:35.621Z,6.97
2023-01-07T11:18:30.130Z,4.43
2023-01-07T11:20:59.248Z,3.80
2023-01-07T11:23:44.223Z,3.00
2023-01-07T11:26:14.435Z,3.63
2023-01-07T11:28:54.703Z,3.63
2023-01-07T11:31:42.638Z,3.42
2023-01-07T11:34:30.513Z,3.35
2023-01-07T11:36:58.013Z,3.90
2023-01-07T11:39:31.457Z,3.78
2023-01-07T11:42:36.331Z,3.75
2023-01-07T11:45:27.752Z,3.60
2023-01-07T11:48:30.704Z,4.38
2023-01-07T11:51:00.987Z,4.07
2023-01-07T11:53:32.179Z,3.55
2023-01-07T11:56:04.402Z,4.78
2023-01-07T11:58:39.034Z,4.97
2023-01-07T12:01:09.869Z,8.93
2023-01-07T12:03:43.514Z,5.43
2023-01-07T12:06:19.099Z,3.50
2023-01-07T12:09:04.456Z,4.25
2023-01-07T12:11:35.116Z,3.30
2023-01-07T12:14:29.769Z,3.47
2023-01-07T12:17:09.600Z,3.40
2023-01-07T12:19:48.886Z,3.83
2023-01-07T12:22:25.068Z,4.43
2023-01-07T12:25:22.847Z,3.28
2023-01-07T12:28:00.382Z,3.78
2023-01-07T12:30:54.625Z,3.10
2023-01-07T12:33:52.207Z,3.17
2023-01-07T12:36:52.449Z,3.20
2023-01-07T12:39:30.504Z,3.45
2023-01-07T12:42:14.143Z,3.58
2023-01-07T12:44:48.981Z,3.67
2023-01-07T12:47:32.569Z,3.80
2023-01-07T12:50:23.300Z,4.10
2023-01-07T12:52:57.892Z,3.40
2023-01-07T12:55:31.943Z,3.20
2023-01-07T12:58:17.367Z,3.70
2023-01-07T13:01:07.615Z,4.32
2023-01-07T13:03:55.722Z,3.70
2023-01-07T13:06:28.940Z,3.70
2023-01-07T13:09:03.850Z,4.10
2023-01-07T13:11:58.792Z,3.67
2023-01-07T13:14:47.707Z,3.95
2023-01-07T13:17:21.814Z,3.83
2023-01-07T13:19:49.137Z,3.80
2023-01-07T13:22:42.266Z,4.03
2023-01-07T13:25:25.866Z,4.00
2023-01-07T13:28:33.250Z,3.83
2023-01-07T13:31:19.230Z,3.92
2023-01-07T13:33:52.508Z,3.80
2023-01-07T13:36:22.459Z,3.22
2023-01-07T13:39:29.594Z,3.88
2023-01-07T13:42:31.493Z,4.07
2023-01-07T13:45:19.554Z,4.03
2023-01-07T13:47:53.700Z,3.97
2023-01-07T13:50:37.845Z,4.05
2023-01-07T13:53:32.883Z,3.65
2023-01-07T13:56:18.488Z,4.70
2023-01-07T13:58:55.864Z,4.45
2023-01-07T14:01:25.634Z,4.28
2023-01-07T14:04:06.421Z,4.30
2023-01-07T14:06:59.976Z,4.43
2023-01-07T14:09:33.529Z,4.45
2023-01-07T14:12:30.367Z,4.40
2023-01-07T14:15:28.693Z,3.95
2023-01-07T14:18:17.926Z,4.18
2023-01-07T14:20:51.551Z,4.55
2023-01-07T14:23:21.783Z,4.35
2023-01-07T14:25:57.887Z,3.80
2023-01-07T14:29:05.035Z,3.65
2023-01-07T14:31:32.549Z,4.05
2023-01-07T14:34:16.382Z,3.97
2023-01-07T14:37:02.070Z,3.88
2023-01-07T14:39:34.799Z,8.00
2023-01-07T14:42:20.160Z,5.47
2023-01-07T14:44:50.999Z,4.25
2023-01-07T14:47:43.607Z,4.03
2023-01-07T14:50:38.030Z,4.22
2023-01-07T14:53:43.297Z,4.30
2023-01-07T14:56:19.318Z,3.97
2023-01-07T14:59:05.170Z,3.97
2023-01-07T15:01:51.347Z,4.38
2023-01-07T15:04:46.048Z,4.32
2023-01-07T15:07:21.543Z,4.10
2023-01-07T15:10:22.373Z,4.28
2023-01-07T15:12:54.943Z,4.13
2023-01-07T15:15:47.469Z,4.35
2023-01-07T15:18:16.130Z,3.92
2023-01-07T15:20:56.440Z,4.40
2023-01-07T15:23:41.398Z,4.70
2023-01-07T15:26:22.970Z,8.82
2023-01-07T15:29:32.493Z,10.65
2023-01-07T15:32:44.003Z,9.25
2023-01-07T15:35:33.280Z,5.28
2023-01-07T15:38:02.971Z,6.43
2023-01-07T15:40:30.448Z,6.65
2023-01-07T15:42:59.163Z,7.05
2023-01-07T15:45:28.676Z,7.68
2023-01-07T15:48:12.344Z,10.40
2023-01-07T15:50:45.288Z,8.30
2023-01-07T15:53:12.470Z,6.20
2023-01-07T15:55:43.818Z,4.90
2023-01-07T15:58:20.385Z,5.47
2023-01-07T16:00:57.885Z,6.20
2023-01-07T16:03:25.349Z,7.43
2023-01-07T16:05:53.497Z,6.28
2023-01-07T16:08:27.188Z,8.18
2023-01-07T16:11:06.318Z,5.80
2023-01-07T16:13:33.686Z,6.00
2023-01-07T16:16:03.631Z,6.03
2023-01-07T16:18:35.040Z,5.57
2023-01-07T16:21:06.933Z,5.28
2023-01-07T16:26:05.962Z,4.63
2023-01-07T16:28:46.023Z,5.13
2023-01-07T16:31:16.961Z,5.47
2023-01-07T16:33:45.576Z,4.83
2023-01-07T16:36:32.415Z,7.05
2023-01-07T16:39:06.171Z,7.10
2023-01-07T16:41:34.387Z,5.88
2023-01-07T16:44:01.761Z,4.95
2023-01-07T16:46:38.951Z,5.70
2023-01-07T16:49:16.351Z,6.15
2023-01-07T16:51:54.098Z,5.55
2023-01-07T16:54:28.813Z,6.22
2023-01-07T16:57:05.703Z,6.30
2023-01-07T16:59:36.710Z,7.00
2023-01-07T17:02:22.593Z,7.40
2023-01-07T17:04:49.925Z,7.20
2023-01-07T17:07:24.912Z,8.38
2023-01-07T17:09:55.696Z,8.18
2023-01-07T17:12:35.958Z,8.07
2023-01-07T17:15:31.800Z,9.48
2023-01-07T17:18:17.318Z,9.38
2023-01-07T17:20:47.653Z,9.70
2023-01-07T17:23:27.033Z,12.88
2023-01-07T17:25:57.594Z,14.60
2023-01-07T17:28:27.480Z,13.35
2023-01-07T17:30:55.067Z,9.75
2023-01-07T17:33:25.663Z,9.55
2023-01-07T17:35:57.641Z,8.73
2023-01-07T17:40:54.574Z,8.25
2023-01-07T17:43:37.724Z,8.52
2023-01-07T17:46:08.752Z,7.93
2023-01-07T17:48:36.668Z,9.15
2023-01-07T17:51:05.424Z,8.88
2023-01-07T17:53:35.525Z,9.10
2023-01-07T17:56:03.456Z,12.13
2023-01-07T17:58:33.454Z,13.68
2023-01-07T18:01:05.805Z,9.18
2023-01-07T18:03:33.443Z,9.43
2023-01-07T18:06:01.011Z,7.43
2023-01-07T18:08:28.682Z,8.35
2023-01-07T18:11:15.509Z,8.98
2023-01-07T18:13:43.107Z,8.82
2023-01-07T18:16:14.553Z,8.90
2023-01-07T18:18:42.066Z,9.50
2023-01-07T18:21:11.737Z,10.02
2023-01-07T18:23:39.174Z,10.23
2023-01-07T18:26:06.855Z,9.70
2023-01-07T18:28:34.151Z,10.30
2023-01-07T18:31:01.757Z,9.63
2023-01-07T18:33:29.432Z,10.73
2023-01-07T18:35:56.848Z,9.70
2023-01-07T18:38:24.273Z,8.80
2023-01-07T18:40:53.679Z,10.40
2023-01-07T18:43:21.605Z,10.05
2023-01-07T18:45:49.000Z,10.65
2023-01-07T18:48:18.371Z,9.38
2023-01-07T18:50:48.838Z,10.45
2023-01-07T18:53:17.848Z,9.55
2023-01-07T18:55:46.206Z,8.45
2023-01-07T18:58:15.233Z,8.57
2023-01-07T19:00:42.736Z,8.88
2023-01-07T19:03:10.839Z,9.65
2023-01-07T19:05:39.388Z,8.77
2023-01-07T19:08:07.103Z,9.90
2023-01-07T19:10:34.565Z,8.93
2023-01-07T19:13:02.032Z,9.60
2023-01-07T19:15:29.301Z,9.32
2023-01-07T19:17:56.603Z,9.10
2023-01-07T19:20:23.926Z,8.07
2023-01-07T19:22:51.406Z,11.63
2023-01-07T19:25:18.642Z,13.02
2023-01-07T19:27:46.119Z,14.00
2023-01-07T19:30:13.543Z,8.93
2023-01-07T19:32:41.010Z,9.55
2023-01-07T19:35:12.230Z,8.45
2023-01-07T19:37:40.240Z,8.43
2023-01-07T19:40:08.117Z,9.57
2023-01-07T19:42:35.466Z,8.80
2023-01-07T19:45:03.581Z,11.77
2023-01-07T19:47:32.362Z,9.90
2023-01-07T19:49:59.696Z,9.98
2023-01-07T19:52:27.231Z,9.60
2023-01-07T19:54:54.695Z,9.07
2023-01-07T19:57:22.314Z,8.07
2023-01-07T19:59:49.631Z,7.38
2023-01-07T20:02:17.958Z,7.53
2023-01-07T20:04:45.502Z,8.05
2023-01-07T20:07:12.830Z,7.97
2023-01-07T20:09:40.805Z,7.75
2023-01-07T20:12:08.391Z,9.77
2023-01-07T20:14:36.165Z,9.30
2023-01-07T20:17:03.904Z,14.50
2023-01-07T20:19:31.206Z,11.07
2023-01-07T20:21:58.432Z,10.00
2023-01-07T20:24:25.794Z,9.00
2023-01-07T20:26:54.693Z,8.02
2023-01-07T20:29:22.246Z,8.32
2023-01-07T20:31:49.483Z,8.13
2023-01-07T20:34:16.967Z,8.50
2023-01-07T20:36:44.752Z,8.77
2023-01-07T20:39:12.053Z,8.48
2023-01-07T20:41:39.396Z,9.20
2023-01-07T20:44:11.250Z,11.98
2023-01-07T20:46:40.162Z,10.95
2023-01-07T20:49:08.288Z,9.40
2023-01-07T20:51:35.793Z,9.27
2023-01-07T20:54:03.070Z,8.70
2023-01-07T20:56:32.480Z,9.52
2023-01-07T20:59:01.150Z,9.27
2023-01-07T21:01:29.735Z,9.52
2023-01-07T21:03:57.906Z,9.25
2023-01-07T21:06:25.550Z,11.25
2023-01-07T21:08:53.363Z,9.82
2023-01-07T21:11:22.934Z,9.15
2023-01-07T21:13:51.974Z,9.23
2023-01-07T21:16:19.761Z,8.23
2023-01-07T21:18:47.485Z,11.65
2023-01-07T21:21:21.286Z,12.00
2023-01-07T21:23:48.853Z,12.70
2023-01-07T21:26:17.680Z,10.13
2023-01-07T21:28:45.435Z,9.65
2023-01-07T21:31:15.755Z,9.15
2023-01-07T21:33:44.104Z,8.85
2023-01-07T21:36:18.334Z,9.02
2023-01-07T21:38:46.818Z,8.68
2023-01-07T21:41:16.357Z,9.63
2023-01-07T21:43:44.350Z,9.13
2023-01-07T21:46:12.695Z,8.77
2023-01-07T21:48:43.679Z,9.65
2023-01-07T21:51:19.138Z,9.60
2023-01-07T21:53:46.737Z,8.38
2023-01-07T21:56:17.111Z,9.65
2023-01-07T21:58:46.161Z,11.15
2023-01-07T22:01:14.203Z,9.82
2023-01-07T22:03:48.046Z,9.70
2023-01-07T22:06:17.938Z,9.38
2023-01-07T22:08:45.348Z,11.50
2023-01-07T22:11:14.414Z,9.05
2023-01-07T22:13:41.921Z,11.73
2023-01-07T22:16:09.609Z,9.98
2023-01-07T22:18:37.155Z,10.70
2023-01-07T22:21:04.502Z,10.02
2023-01-07T22:23:31.844Z,9.65
2023-01-07T22:26:06.608Z,10.52
2023-01-07T22:28:37.287Z,10.32
2023-01-07T22:31:20.765Z,9.80
2023-01-07T22:33:48.173Z,11.23
2023-01-07T22:36:37.372Z,10.10
2023-01-07T22:39:17.400Z,10.07
2023-01-07T22:41:46.580Z,8.93
2023-01-07T22:44:17.918Z,11.15
2023-01-07T22:46:48.172Z,11.85
2023-01-07T22:49:15.909Z,10.00
2023-01-07T22:51:48.047Z,11.20
2023-01-07T22:54:16.628Z,11.27
2023-01-07T22:56:45.016Z,10.27
2023-01-07T22:59:12.366Z,13.55
2023-01-07T23:01:40.212Z,13.52
2023-01-07T23:04:07.980Z,14.52
2023-01-07T23:06:35.412Z,12.27
2023-01-07T23:09:03.065Z,11.35
2023-01-07T23:11:51.053Z,11.45
2023-01-07T23:14:20.580Z,11.98
2023-01-07T23:16:48.928Z,12.48
2023-01-07T23:19:17.350Z,10.68
2023-01-07T23:21:46.107Z,11.43
2023-01-07T23:24:13.745Z,11.38
2023-01-07T23:26:42.360Z,10.88
2023-01-07T23:29:09.767Z,11.38
2023-01-07T23:31:37.363Z,10.40
2023-01-07T23:34:05.451Z,11.98
2023-01-07T23:36:32.979Z,11.88
2023-01-07T23:39:00.230Z,11.25
2023-01-07T23:41:27.548Z,10.10
2023-01-07T23:43:54.817Z,10.85
2023-01-07T23:46:22.317Z,10.88
2023-01-07T23:48:49.672Z,11.20
2023-01-07T23:51:19.241Z,10.57
2023-01-07T23:53:47.104Z,10.50
2023-01-07T23:56:17.163Z,11.23
2023-01-07T23:58:44.582Z,11.63
